createdAt,value
2022-11-29T00:01:36.435Z,101260.75
2022-11-29T00:04:04.028Z,101266.38
2022-11-29T00:06:33.553Z,101260.63
2022-11-29T00:09:06.466Z,101264.63
2022-11-29T00:11:55.587Z,101257.25
2022-11-29T00:14:23.795Z,101262.25
2022-11-29T00:17:01.918Z,101260.81
2022-11-29T00:19:29.235Z,101269.97
2022-11-29T00:21:55.993Z,101268.63
2022-11-29T00:24:23.247Z,101273.34
2022-11-29T00:26:50.123Z,101262.88
2022-11-29T00:29:17.293Z,101263.78
2022-11-29T00:31:45.006Z,101264.00
2022-11-29T00:34:12.733Z,101263.72
2022-11-29T00:36:40.108Z,101259.72
2022-11-29T00:39:07.421Z,101264.34
2022-11-29T00:41:35.118Z,101266.50
2022-11-29T00:44:01.850Z,101261.63
2022-11-29T00:46:28.561Z,101266.47
2022-11-29T00:48:55.354Z,101263.47
2022-11-29T00:51:22.002Z,101263.03
2022-11-29T00:53:48.814Z,101260.91
2022-11-29T00:56:16.234Z,101259.53
2022-11-29T00:58:43.625Z,101265.56
2022-11-29T01:01:11.664Z,101260.47
2022-11-29T01:03:38.786Z,101262.63
2022-11-29T01:06:11.975Z,101258.94
2022-11-29T01:08:39.139Z,101258.09
2022-11-29T01:11:12.944Z,101252.38
2022-11-29T01:13:40.736Z,101253.94
2022-11-29T01:16:08.517Z,101261.91
2022-11-29T01:18:36.384Z,101258.00
2022-11-29T01:21:08.295Z,101265.56
2022-11-29T01:23:36.894Z,101255.81
2022-11-29T01:26:10.451Z,101258.53
2022-11-29T01:28:39.745Z,101257.44
2022-11-29T01:31:16.624Z,101266.97
2022-11-29T01:33:43.465Z,101266.19
2022-11-29T01:36:12.246Z,101270.16
2022-11-29T01:38:39.005Z,101259.50
2022-11-29T01:41:25.179Z,101262.25
2022-11-29T01:44:26.474Z,101264.03
2022-11-29T01:46:54.334Z,101272.28
2022-11-29T01:49:37.975Z,101275.38
2022-11-29T01:52:20.745Z,101268.66
2022-11-29T01:54:52.494Z,101273.28
2022-11-29T01:57:20.395Z,101280.09
2022-11-29T01:59:52.228Z,101266.16
2022-11-29T02:02:28.106Z,101269.53
2022-11-29T02:04:59.318Z,101269.41
2022-11-29T02:07:26.264Z,101262.31
2022-11-29T02:09:52.989Z,101263.16
2022-11-29T02:12:34.825Z,101263.63
2022-11-29T02:15:13.406Z,101262.75
2022-11-29T02:17:49.883Z,101269.25
2022-11-29T02:21:09.844Z,101266.50
2022-11-29T02:23:42.612Z,101272.19
2022-11-29T02:26:56.070Z,101266.00
2022-11-29T02:29:56.833Z,101270.19
2022-11-29T02:33:14.627Z,101269.53
2022-11-29T02:36:03.064Z,101267.66
2022-11-29T02:39:00.512Z,101266.72
2022-11-29T02:42:11.354Z,101271.78
2022-11-29T02:44:55.729Z,101257.75
2022-11-29T02:48:02.824Z,101262.53
2022-11-29T02:51:05.365Z,101264.81
2022-11-29T02:54:11.686Z,101265.53
2022-11-29T02:56:54.961Z,101267.22
2022-11-29T02:59:52.865Z,101263.50
2022-11-29T03:02:35.991Z,101261.84
2022-11-29T03:06:02.376Z,101268.16
2022-11-29T03:08:56.800Z,101269.69
2022-11-29T03:12:04.082Z,101277.13
2022-11-29T03:15:07.591Z,101270.84
2022-11-29T03:18:11.252Z,101275.38
2022-11-29T03:21:08.829Z,101278.00
2022-11-29T03:23:48.898Z,101281.06
2022-11-29T03:26:45.902Z,101296.22
2022-11-29T03:29:50.266Z,101296.31
2022-11-29T03:32:38.598Z,101293.19
2022-11-29T03:35:18.360Z,101283.13
2022-11-29T03:38:22.059Z,101291.06
2022-11-29T03:41:18.333Z,101292.69
2022-11-29T03:44:07.611Z,101303.00
2022-11-29T03:46:56.338Z,101301.34
2022-11-29T03:49:34.892Z,101308.28
2022-11-29T03:52:24.763Z,101306.44
2022-11-29T03:55:21.611Z,101310.06
2022-11-29T03:58:17.516Z,101307.56
2022-11-29T04:00:50.267Z,101311.63
2022-11-29T04:03:44.612Z,101312.06
2022-11-29T04:06:23.769Z,101315.19
2022-11-29T04:08:57.756Z,101300.66
2022-11-29T04:11:33.580Z,101307.28
2022-11-29T04:14:38.332Z,101319.28
2022-11-29T04:17:25.382Z,101318.34
2022-11-29T04:20:16.144Z,101312.81
2022-11-29T04:23:43.897Z,101328.19
2022-11-29T04:26:34.680Z,101322.22
2022-11-29T04:29:30.721Z,101322.63
2022-11-29T04:32:23.541Z,101329.44
2022-11-29T04:35:19.496Z,101326.56
2022-11-29T04:38:06.004Z,101332.44
2022-11-29T04:41:20.060Z,101336.81
2022-11-29T04:44:04.905Z,101331.09
2022-11-29T04:47:23.236Z,101329.91
2022-11-29T04:50:20.876Z,101329.47
2022-11-29T04:53:25.786Z,101325.47
2022-11-29T04:56:04.298Z,101333.00
2022-11-29T04:58:52.304Z,101337.72
2022-11-29T05:01:40.783Z,101335.63
2022-11-29T05:04:14.085Z,101341.09
2022-11-29T05:07:01.771Z,101341.47
2022-11-29T05:10:31.430Z,101347.53
2022-11-29T05:13:21.052Z,101355.13
2022-11-29T05:16:15.741Z,101345.66
2022-11-29T05:19:19.591Z,101342.09
2022-11-29T05:22:22.347Z,101361.47
2022-11-29T05:25:00.516Z,101361.97
2022-11-29T05:27:46.271Z,101363.19
2022-11-29T05:30:23.416Z,101360.56
2022-11-29T05:33:21.457Z,101362.50
2022-11-29T05:36:21.656Z,101361.81
2022-11-29T05:38:57.201Z,101370.50
2022-11-29T05:41:45.574Z,101368.16
2022-11-29T05:44:50.957Z,101365.53
2022-11-29T05:47:53.966Z,101370.03
2022-11-29T05:50:47.976Z,101376.38
2022-11-29T05:53:39.526Z,101376.38
2022-11-29T05:56:23.539Z,101382.94
2022-11-29T05:59:02.399Z,101387.09
2022-11-29T06:02:10.897Z,101388.88
2022-11-29T06:05:14.659Z,101389.59
2022-11-29T06:07:54.818Z,101392.84
2022-11-29T06:10:27.433Z,101395.56
2022-11-29T06:13:02.950Z,101403.50
2022-11-29T06:15:56.662Z,101399.44
2022-11-29T06:18:28.770Z,101401.47
2022-11-29T06:21:39.022Z,101403.13
2022-11-29T06:24:46.401Z,101402.00
2022-11-29T06:27:50.033Z,101412.72
2022-11-29T06:30:22.525Z,101414.69
2022-11-29T06:33:14.995Z,101417.25
2022-11-29T06:36:07.813Z,101419.09
2022-11-29T06:38:34.799Z,101417.94
2022-11-29T06:41:02.633Z,101419.88
2022-11-29T06:43:31.392Z,101422.81
2022-11-29T06:46:21.000Z,101420.19
2022-11-29T06:49:25.776Z,101435.47
2022-11-29T06:52:26.363Z,101431.69
2022-11-29T06:56:00.198Z,101436.28
2022-11-29T06:59:05.811Z,101437.81
2022-11-29T07:02:02.000Z,101437.84
2022-11-29T07:04:49.031Z,101444.50
2022-11-29T07:07:21.035Z,101445.03
2022-11-29T07:09:53.130Z,101447.69
2022-11-29T07:12:20.243Z,101451.28
2022-11-29T07:14:47.739Z,101440.38
2022-11-29T07:17:24.924Z,101453.91
2022-11-29T07:20:37.694Z,101456.16
2022-11-29T07:23:45.756Z,101455.59
2022-11-29T07:26:46.336Z,101448.63
2022-11-29T07:29:49.587Z,101457.78
2022-11-29T07:32:35.516Z,101459.59
2022-11-29T07:35:15.173Z,101460.91
2022-11-29T07:38:19.504Z,101462.41
2022-11-29T07:40:57.093Z,101464.03
2022-11-29T07:43:39.283Z,101467.56
2022-11-29T07:46:05.987Z,101466.94
2022-11-29T07:48:32.676Z,101462.50
2022-11-29T07:51:01.033Z,101474.47
2022-11-29T07:53:28.886Z,101469.34
2022-11-29T07:55:55.647Z,101477.22
2022-11-29T07:58:22.484Z,101481.47
2022-11-29T08:00:49.243Z,101472.63
2022-11-29T08:03:15.988Z,101471.91
2022-11-29T08:05:47.253Z,101477.03
2022-11-29T08:08:14.613Z,101477.66
2022-11-29T08:10:41.265Z,101485.00
2022-11-29T08:13:07.937Z,101485.97
2022-11-29T08:15:34.978Z,101493.53
2022-11-29T08:18:03.005Z,101493.38
2022-11-29T08:20:29.642Z,101493.72
2022-11-29T08:22:58.697Z,101501.78
2022-11-29T08:25:26.976Z,101493.41
2022-11-29T08:27:54.696Z,101499.34
2022-11-29T08:30:22.666Z,101493.78
2022-11-29T08:32:51.779Z,101494.44
2022-11-29T08:35:23.713Z,101491.56
2022-11-29T08:37:50.876Z,101494.75
2022-11-29T08:40:18.245Z,101495.72
2022-11-29T08:42:44.954Z,101494.50
2022-11-29T08:45:12.117Z,101498.13
2022-11-29T08:47:41.037Z,101506.06
2022-11-29T08:50:14.160Z,101504.53
2022-11-29T08:53:06.526Z,101504.84
2022-11-29T08:55:40.659Z,101501.66
2022-11-29T08:58:11.551Z,101505.03
2022-11-29T09:00:39.548Z,101503.72
2022-11-29T09:03:25.774Z,101504.16
2022-11-29T09:05:53.167Z,101514.94
2022-11-29T09:08:20.361Z,101508.34
2022-11-29T09:10:47.505Z,101507.50
2022-11-29T09:13:14.167Z,101505.31
2022-11-29T09:15:42.366Z,101518.59
2022-11-29T09:18:09.157Z,101523.63
2022-11-29T09:20:36.076Z,101530.78
2022-11-29T09:23:03.042Z,101529.50
2022-11-29T09:25:29.891Z,101527.94
2022-11-29T09:28:02.713Z,101526.25
2022-11-29T09:30:34.964Z,101525.94
2022-11-29T09:33:05.208Z,101529.84
2022-11-29T09:35:33.852Z,101535.34
2022-11-29T09:38:00.716Z,101533.81
2022-11-29T09:41:38.758Z,101541.13
2022-11-29T09:44:40.971Z,101538.53
2022-11-29T09:47:32.797Z,101538.25
2022-11-29T09:50:34.788Z,101538.72
2022-11-29T09:53:52.404Z,101539.22
2022-11-29T09:56:38.724Z,101533.47
2022-11-29T09:59:14.175Z,101536.00
2022-11-29T10:01:51.050Z,101541.84
2022-11-29T10:04:23.920Z,101540.59
2022-11-29T10:07:27.998Z,101544.84
2022-11-29T10:10:16.031Z,101543.13
2022-11-29T10:12:55.237Z,101541.84
2022-11-29T10:15:42.847Z,101541.69
2022-11-29T10:18:44.086Z,101534.41
2022-11-29T10:21:24.185Z,101543.53
2022-11-29T10:23:59.290Z,101545.56
2022-11-29T10:26:32.002Z,101542.06
2022-11-29T10:29:01.703Z,101548.09
2022-11-29T10:31:43.188Z,101547.19
2022-11-29T10:34:17.845Z,101550.34
2022-11-29T10:36:58.552Z,101546.69
2022-11-29T10:39:57.325Z,101546.47
2022-11-29T10:42:47.098Z,101541.00
2022-11-29T10:45:26.479Z,101549.28
2022-11-29T10:47:58.279Z,101540.28
2022-11-29T10:50:33.557Z,101549.69
2022-11-29T10:53:17.429Z,101548.34
2022-11-29T10:55:53.251Z,101548.44
2022-11-29T10:58:28.393Z,101556.94
2022-11-29T11:01:09.286Z,101554.81
2022-11-29T11:03:54.135Z,101558.44
2022-11-29T11:06:42.140Z,101549.81
2022-11-29T11:10:21.758Z,101552.88
2022-11-29T11:13:04.345Z,101546.69
2022-11-29T11:15:33.186Z,101557.22
2022-11-29T11:18:05.145Z,101548.13
2022-11-29T11:20:39.948Z,101557.97
2022-11-29T11:23:36.392Z,101552.97
2022-11-29T11:26:12.898Z,101561.81
2022-11-29T11:28:57.744Z,101554.13
2022-11-29T11:31:30.569Z,101554.31
2022-11-29T11:34:17.384Z,101556.31
2022-11-29T11:36:44.028Z,101562.50
2022-11-29T11:39:18.249Z,101562.78
2022-11-29T11:42:04.910Z,101562.63
2022-11-29T11:44:52.293Z,101562.66
2022-11-29T11:47:31.026Z,101560.97
2022-11-29T11:50:02.958Z,101565.66
2022-11-29T11:52:54.005Z,101566.94
2022-11-29T11:55:34.357Z,101565.19
2022-11-29T11:58:15.927Z,101562.09
2022-11-29T12:01:07.857Z,101572.09
2022-11-29T12:04:05.726Z,101569.34
2022-11-29T12:06:38.535Z,101572.19
2022-11-29T12:09:08.388Z,101579.22
2022-11-29T12:11:56.670Z,101580.59
2022-11-29T12:14:51.475Z,101577.75
2022-11-29T12:17:32.550Z,101587.47
2022-11-29T12:20:54.518Z,101582.22
2022-11-29T12:24:00.341Z,101589.63
2022-11-29T12:26:57.080Z,101595.16
2022-11-29T12:29:22.829Z,101589.63
2022-11-29T12:32:53.078Z,101595.50
2022-11-29T12:36:00.112Z,101597.94
2022-11-29T12:38:48.089Z,101591.47
2022-11-29T12:41:35.981Z,101599.69
2022-11-29T12:44:39.828Z,101594.69
2022-11-29T12:47:37.973Z,101597.09
2022-11-29T12:50:26.116Z,101599.66
2022-11-29T12:53:14.749Z,101599.97
2022-11-29T12:56:10.901Z,101603.34
2022-11-29T12:59:07.381Z,101610.94
2022-11-29T13:01:41.455Z,101613.47
2022-11-29T13:04:58.202Z,101608.13
2022-11-29T13:07:58.857Z,101607.09
2022-11-29T13:11:15.226Z,101619.50
2022-11-29T13:13:43.917Z,101612.28
2022-11-29T13:17:18.003Z,101618.78
2022-11-29T13:20:14.235Z,101616.94
2022-11-29T13:22:50.303Z,101624.16
2022-11-29T13:25:32.588Z,101623.09
2022-11-29T13:28:06.154Z,101615.13
2022-11-29T13:30:36.020Z,101621.56
2022-11-29T13:33:27.042Z,101626.41
2022-11-29T13:36:09.581Z,101624.75
2022-11-29T13:38:41.260Z,101622.31
2022-11-29T13:41:17.625Z,101627.94
2022-11-29T13:44:55.617Z,101633.91
2022-11-29T13:47:22.461Z,101632.03
2022-11-29T13:50:02.695Z,101630.63
2022-11-29T13:52:45.308Z,101630.97
2022-11-29T13:55:11.962Z,101628.44
2022-11-29T13:58:20.702Z,101633.56
2022-11-29T14:00:47.291Z,101636.38
2022-11-29T14:03:28.866Z,101639.09
2022-11-29T14:06:01.435Z,101637.91
2022-11-29T14:08:42.505Z,101646.78
2022-11-29T14:11:31.938Z,101633.41
2022-11-29T14:14:09.437Z,101643.34
2022-11-29T14:16:42.577Z,101645.16
2022-11-29T14:19:09.217Z,101649.00
2022-11-29T14:22:06.753Z,101648.84
2022-11-29T14:24:36.432Z,101652.25
2022-11-29T14:27:06.188Z,101652.22
2022-11-29T14:29:48.496Z,101655.41
2022-11-29T14:32:52.861Z,101661.09
2022-11-29T14:35:46.212Z,101660.19
2022-11-29T14:38:31.142Z,101671.22
2022-11-29T14:41:39.736Z,101667.22
2022-11-29T14:44:43.129Z,101669.53
2022-11-29T14:47:35.411Z,101669.66
2022-11-29T14:50:08.295Z,101669.69
2022-11-29T14:52:40.607Z,101660.28
2022-11-29T14:55:28.855Z,101666.59
2022-11-29T14:57:58.589Z,101668.28
2022-11-29T15:00:37.704Z,101671.56
2022-11-29T15:03:21.224Z,101673.16
2022-11-29T15:06:00.825Z,101672.38
2022-11-29T15:08:46.741Z,101678.25
2022-11-29T15:11:35.702Z,101669.97
2022-11-29T15:14:40.846Z,101676.34
2022-11-29T15:17:52.076Z,101676.44
2022-11-29T15:21:03.735Z,101671.47
2022-11-29T15:23:42.479Z,101682.94
2022-11-29T15:26:19.593Z,101673.28
2022-11-29T15:28:46.589Z,101684.06
2022-11-29T15:31:19.101Z,101692.38
2022-11-29T15:33:49.183Z,101690.56
2022-11-29T15:36:22.634Z,101689.25
2022-11-29T15:38:54.419Z,101695.59
2022-11-29T15:41:30.820Z,101696.97
2022-11-29T15:44:04.755Z,101702.41
2022-11-29T15:46:34.678Z,101703.97
2022-11-29T15:49:26.237Z,101703.25
2022-11-29T15:52:08.338Z,101703.03
2022-11-29T15:54:48.739Z,101706.38
2022-11-29T15:57:40.272Z,101712.56
2022-11-29T16:00:23.864Z,101712.91
2022-11-29T16:03:01.473Z,101713.25
2022-11-29T16:05:36.642Z,101721.06
2022-11-29T16:08:17.349Z,101716.59
2022-11-29T16:10:51.560Z,101719.09
2022-11-29T16:13:35.230Z,101728.16
2022-11-29T16:16:14.144Z,101722.56
2022-11-29T16:18:43.748Z,101732.78
2022-11-29T16:21:31.212Z,101730.72
2022-11-29T16:24:10.170Z,101730.81
2022-11-29T16:26:43.022Z,101733.16
2022-11-29T16:29:28.687Z,101735.72
2022-11-29T16:31:55.887Z,101743.81
2022-11-29T16:34:33.104Z,101743.41
2022-11-29T16:37:22.005Z,101743.03
2022-11-29T16:40:00.205Z,101745.97
2022-11-29T16:42:31.488Z,101744.66
2022-11-29T16:45:32.710Z,101753.03
2022-11-29T16:48:00.393Z,101739.69
2022-11-29T16:50:30.102Z,101748.88
2022-11-29T16:53:35.166Z,101747.53
2022-11-29T16:56:03.976Z,101744.97
2022-11-29T16:58:31.303Z,101752.91
2022-11-29T17:00:58.033Z,101759.53
2022-11-29T17:03:24.731Z,101753.44
2022-11-29T17:05:51.503Z,101757.78
2022-11-29T17:08:18.229Z,101748.22
2022-11-29T17:10:45.055Z,101754.50
2022-11-29T17:13:11.929Z,101756.03
2022-11-29T17:15:38.881Z,101758.03
2022-11-29T17:18:05.552Z,101767.69
2022-11-29T17:20:32.415Z,101768.13
2022-11-29T17:22:59.097Z,101761.06
2022-11-29T17:25:25.817Z,101764.56
2022-11-29T17:27:52.631Z,101763.88
2022-11-29T17:30:19.534Z,101765.59
2022-11-29T17:32:46.187Z,101763.09
2022-11-29T17:35:12.881Z,101764.56
2022-11-29T17:37:39.579Z,101765.38
2022-11-29T17:40:07.448Z,101750.03
2022-11-29T17:42:34.074Z,101770.19
2022-11-29T17:45:00.760Z,101772.91
2022-11-29T17:47:27.449Z,101773.75
2022-11-29T17:49:54.164Z,101767.84
2022-11-29T17:52:20.879Z,101777.72
2022-11-29T17:54:47.719Z,101774.13
2022-11-29T17:57:14.357Z,101785.25
2022-11-29T17:59:41.051Z,101784.97
2022-11-29T18:02:07.740Z,101782.00
2022-11-29T18:04:34.503Z,101772.22
2022-11-29T18:07:01.559Z,101785.53
2022-11-29T18:09:28.278Z,101786.44
2022-11-29T18:11:54.966Z,101782.84
2022-11-29T18:14:24.049Z,101791.63
2022-11-29T18:16:51.861Z,101781.94
2022-11-29T18:19:25.273Z,101795.00
2022-11-29T18:21:52.028Z,101799.09
2022-11-29T18:24:19.350Z,101796.16
2022-11-29T18:26:46.796Z,101794.84
2022-11-29T18:29:13.701Z,101787.53
2022-11-29T18:31:44.408Z,101794.41
2022-11-29T18:34:13.793Z,101792.94
2022-11-29T18:36:47.079Z,101804.13
2022-11-29T18:39:20.758Z,101800.53
2022-11-29T18:41:49.865Z,101795.34
2022-11-29T18:44:19.919Z,101804.53
2022-11-29T18:46:47.647Z,101809.31
2022-11-29T18:49:17.366Z,101806.44
2022-11-29T18:51:45.930Z,101806.44
2022-11-29T18:54:15.647Z,101808.75
2022-11-29T18:56:43.985Z,101803.03
2022-11-29T18:59:16.646Z,101810.00
2022-11-29T19:01:47.502Z,101813.47
2022-11-29T19:04:20.749Z,101815.00
2022-11-29T19:06:48.640Z,101815.25
2022-11-29T19:09:21.096Z,101809.41
2022-11-29T19:11:51.147Z,101815.72
2022-11-29T19:14:18.756Z,101806.31
2022-11-29T19:16:48.429Z,101805.00
2022-11-29T19:19:15.425Z,101809.78
2022-11-29T19:21:42.422Z,101803.00
2022-11-29T19:24:17.925Z,101815.69
2022-11-29T19:26:47.019Z,101812.03
2022-11-29T19:29:15.151Z,101813.16
2022-11-29T19:31:42.899Z,101808.06
2022-11-29T19:34:11.764Z,101822.34
2022-11-29T19:36:44.169Z,101815.56
2022-11-29T19:39:17.155Z,101804.09
2022-11-29T19:41:47.107Z,101810.81
2022-11-29T19:44:14.286Z,101809.34
2022-11-29T19:46:48.541Z,101812.00
2022-11-29T19:49:15.699Z,101807.06
2022-11-29T19:51:42.468Z,101812.94
2022-11-29T19:54:10.153Z,101814.63
2022-11-29T19:56:38.762Z,101818.75
2022-11-29T19:59:07.519Z,101825.47
2022-11-29T20:01:40.832Z,101822.84
2022-11-29T20:04:11.357Z,101822.19
2022-11-29T20:06:38.496Z,101843.09
2022-11-29T20:09:06.357Z,101834.16
2022-11-29T20:11:33.096Z,101831.81
2022-11-29T20:14:02.977Z,101839.00
2022-11-29T20:16:30.971Z,101841.16
2022-11-29T20:18:59.136Z,101844.28
2022-11-29T20:21:31.969Z,101843.03
2022-11-29T20:24:05.866Z,101841.66
2022-11-29T20:26:36.754Z,101841.72
2022-11-29T20:29:06.508Z,101842.09
2022-11-29T20:31:35.508Z,101841.94
2022-11-29T20:34:05.535Z,101838.44
2022-11-29T20:36:55.559Z,101844.13
2022-11-29T20:39:43.712Z,101847.22
2022-11-29T20:42:44.586Z,101843.03
2022-11-29T20:45:13.131Z,101847.22
2022-11-29T20:48:11.102Z,101846.00
2022-11-29T20:50:38.184Z,101850.13
2022-11-29T20:53:33.228Z,101847.72
2022-11-29T20:56:00.638Z,101848.34
2022-11-29T20:58:27.560Z,101857.13
2022-11-29T21:00:55.451Z,101856.56
2022-11-29T21:03:23.326Z,101856.16
2022-11-29T21:05:51.115Z,101862.81
2022-11-29T21:08:21.748Z,101853.94
2022-11-29T21:10:49.701Z,101853.31
2022-11-29T21:13:18.582Z,101863.50
2022-11-29T21:15:45.831Z,101861.41
2022-11-29T21:18:27.101Z,101859.03
2022-11-29T21:21:08.516Z,101861.63
2022-11-29T21:24:00.497Z,101865.47
2022-11-29T21:26:42.294Z,101864.22
2022-11-29T21:29:16.786Z,101866.94
2022-11-29T21:31:45.146Z,101867.22
2022-11-29T21:34:12.094Z,101865.72
2022-11-29T21:36:39.525Z,101869.78
2022-11-29T21:39:07.663Z,101864.03
2022-11-29T21:41:34.665Z,101855.72
2022-11-29T21:44:09.101Z,101870.28
2022-11-29T21:46:36.121Z,101866.97
2022-11-29T21:49:03.003Z,101870.88
2022-11-29T21:51:29.768Z,101871.22
2022-11-29T21:53:56.432Z,101876.97
2022-11-29T21:56:23.232Z,101878.97
2022-11-29T21:58:49.891Z,101878.03
2022-11-29T22:01:20.949Z,101878.53
2022-11-29T22:03:48.235Z,101874.84
2022-11-29T22:06:21.232Z,101878.53
2022-11-29T22:08:48.538Z,101873.84
2022-11-29T22:11:30.699Z,101878.38
2022-11-29T22:14:14.717Z,101872.47
2022-11-29T22:16:58.624Z,101875.19
2022-11-29T22:19:31.245Z,101875.16
2022-11-29T22:22:02.073Z,101880.63
2022-11-29T22:24:33.234Z,101878.59
2022-11-29T22:27:01.520Z,101875.91
2022-11-29T22:29:28.712Z,101879.31
2022-11-29T22:31:56.744Z,101885.50
2022-11-29T22:34:25.145Z,101871.59
2022-11-29T22:36:52.204Z,101881.16
2022-11-29T22:39:18.923Z,101883.06
2022-11-29T22:41:52.257Z,101890.22
2022-11-29T22:44:20.771Z,101888.19
2022-11-29T22:46:47.511Z,101890.59
2022-11-29T22:49:14.291Z,101889.50
2022-11-29T22:51:40.959Z,101889.78
2022-11-29T22:54:11.367Z,101883.72
2022-11-29T22:56:41.032Z,101887.13
2022-11-29T22:59:09.012Z,101892.31
2022-11-29T23:01:38.863Z,101891.44
2022-11-29T23:04:10.175Z,101897.75
2022-11-29T23:06:46.410Z,101894.00
2022-11-29T23:09:22.204Z,101893.28
2022-11-29T23:11:53.823Z,101891.28
2022-11-29T23:14:21.969Z,101898.47
2022-11-29T23:16:48.798Z,101898.19
2022-11-29T23:19:16.183Z,101899.94
2022-11-29T23:21:45.408Z,101901.88
2022-11-29T23:24:12.553Z,101901.63
2022-11-29T23:26:46.538Z,101901.31
2022-11-29T23:29:17.777Z,101896.00
2022-11-29T23:31:44.616Z,101891.72
2022-11-29T23:34:11.522Z,101889.75
2022-11-29T23:36:38.504Z,101898.47
2022-11-29T23:39:06.682Z,101898.72
2022-11-29T23:41:37.482Z,101898.38
2022-11-29T23:44:05.903Z,101904.44
2022-11-29T23:46:34.810Z,101901.38
2022-11-29T23:49:01.572Z,101898.91
2022-11-29T23:51:30.820Z,101901.38
2022-11-29T23:53:57.488Z,101892.19
2022-11-29T23:56:24.203Z,101889.75
2022-11-29T23:58:50.971Z,101894.31
